Latest Weather Observations for Cape Bruny AWS

IDT60901

Issued at 9:01 pm EDT Monday 17 December 2018 (issued every 10 minutes, with the page automatically refreshed every 10 minutes)

About weather observations | Map of Hobart area stations | Latest observations for Hobart area | Other Formats
Station Details ID: 094198 Name: CAPE BRUNY (CAPE BRUNY) Lat: -43.49 Lon: 147.14 Height: 59.7 m
Data from the previous 72 hours. | See also: Recent months at Cape Bruny AWS
Date/Time
EDT
Temp
°C
App
Temp
°C
Dew
Point
°C
Rel
Hum
%
Delta-T
°C
Wind Press
QNH
hPa
Press
MSL
hPa
Rain since
9am
mm
Dir  Spd
km/h
Gust
km/h
Spd
kts
Gust
kts
17/09:00pm 12.8 10.0 11.4 91 0.7 SW 17 32 9 17 1014.4 1014.4 12.0
17/08:30pm 12.7 9.5 11.4 92 0.7 SSW 19 33 10 18 1013.9 1013.9 12.0
17/08:00pm 13.0 9.8 11.9 93 0.6 SW 20 35 11 19 1013.4 1013.4 12.0
17/07:30pm 12.9 9.9 11.8 93 0.6 SW 19 33 10 18 1013.0 1013.0 12.0
17/07:00pm 13.0 8.7 11.9 93 0.6 SW 26 41 14 22 1012.6 1012.6 11.4
17/06:42pm 13.0 8.3 12.1 94 0.5 SW 28 46 15 25 1012.3 1012.3 10.8
17/06:30pm 13.1 8.5 12.2 94 0.5 SW 28 39 15 21 1012.0 1012.0 10.8
17/06:00pm 13.2 8.6 12.3 94 0.5 WSW 28 39 15 21 1011.5 1011.5 10.4
17/05:30pm 13.3 8.7 12.4 94 0.5 SW 28 39 15 21 1011.1 1011.1 9.4
17/05:00pm 13.2 7.8 12.3 94 0.5 SW 32 50 17 27 1010.7 1010.7 7.4
17/04:54pm 13.3 8.0 12.4 94 0.5 SW 32 50 17 27 1010.6 1010.6 6.8
17/04:30pm 13.5 10.1 12.6 94 0.5 SW 22 35 12 19 1010.3 1010.3 5.0
17/04:00pm 13.6 9.1 12.7 94 0.5 SW 28 43 15 23 1010.0 1010.0 4.2
17/03:30pm 13.8 8.6 12.7 93 0.6 SW 32 48 17 26 1009.7 1009.7 3.8
17/03:28pm 13.7 8.8 12.6 93 0.6 SW 30 48 16 26 1009.6 1009.5 3.8
17/03:00pm 13.8 8.0 12.7 93 0.6 SW 35 48 19 26 1009.3 1009.2 3.6
17/02:30pm 14.2 9.0 12.9 92 0.7 SW 32 48 17 26 1008.8 1008.7 3.4
17/02:15pm 13.9 7.4 12.8 93 0.6 SW 39 59 21 32 1008.5 1008.4 3.4
17/02:00pm 14.1 7.7 13.1 94 0.6 SW 39 56 21 30 1008.2 1008.1 3.4
17/01:55pm 14.0 8.3 13.1 94 0.5 SW 35 54 19 29 1008.2 1008.1 3.4
17/01:30pm 13.9 7.1 13.1 95 0.4 SW 41 54 22 29 1007.8 1007.7 3.4
17/01:05pm 14.1 8.5 13.3 95 0.4 SW 35 54 19 29 1007.3 1007.2 3.4
17/01:00pm 14.2 8.6 13.4 95 0.4 SW 35 52 19 28 1007.2 1007.1 3.2
17/12:47pm 14.3 9.3 13.5 95 0.4 WSW 32 50 17 27 1006.8 1006.7 3.2
17/12:30pm 14.4 9.5 13.6 95 0.4 WSW 32 44 17 24 1006.5 1006.4 3.2
17/12:00pm 14.4 8.1 13.6 95 0.4 WSW 39 52 21 28 1005.8 1005.7 3.2
17/11:30am 14.5 6.9 13.7 95 0.4 WSW 46 56 25 30 1005.4 1005.3 2.6
17/11:00am 14.6 6.6 13.6 94 0.6 WSW 48 57 26 31 1005.0 1004.9 1.4
17/10:30am 15.1 8.6 14.1 94 0.6 W 41 54 22 29 1004.5 1004.4 0.0
17/10:00am 14.9 7.9 13.8 93 0.6 W 43 54 23 29 1004.2 1004.1 0.0
17/09:30am 15.0 8.4 13.7 92 0.7 W 41 57 22 31 1003.9 1003.8 0.0
17/09:00am 15.1 7.5 13.6 91 0.8 WSW 46 57 25 31 1003.8 1003.7 12.0
17/08:30am 14.9 9.0 13.6 92 0.7 WSW 37 54 20 29 1003.8 1003.7 12.0
17/08:00am 15.0 10.2 13.9 93 0.6 WSW 32 39 17 21 1003.6 1003.5 12.0
17/07:30am 15.2 12.9 14.1 93 0.6 WSW 19 28 10 15 1003.5 1003.4 11.0
17/07:00am 15.9 15.0 14.8 93 0.6 W 13 17 7 9 1003.3 1003.2 10.2
17/06:30am 15.7 14.6 14.4 92 0.7 SSW 13 15 7 8 1003.1 1003.0 10.2
17/06:00am 15.9 17.0 14.6 92 0.7 SSE 2 7 1 4 1002.8 1002.7 10.2
17/05:30am 15.8 15.9 14.5 92 0.7 SSW 7 9 4 5 1002.7 1002.6 10.2
17/05:00am 15.8 14.8 14.5 92 0.7 WNW 13 17 7 9 1002.3 1002.2 10.2
17/04:30am 15.5 15.2 14.4 93 0.6 N 9 9 5 5 1002.1 1002.0 10.2
17/04:00am 15.4 14.7 14.3 93 0.6 E 11 13 6 7 1002.2 1002.1 10.2
17/03:30am 15.9 16.2 14.6 92 0.7 SSE 6 13 3 7 1002.1 1002.0 10.2
17/03:00am 15.9 15.7 14.6 92 0.7 WNW 9 17 5 9 1002.4 1002.3 10.2
17/02:30am 16.0 14.8 15.0 94 0.6 N 15 19 8 10 1002.6 1002.5 10.2
17/02:00am 16.3 14.8 15.3 94 0.6 N 17 22 9 12 1002.6 1002.5 10.2
17/01:30am 16.2 14.3 15.2 94 0.6 N 19 20 10 11 1002.5 1002.4 10.2
17/01:00am 16.5 15.1 15.5 94 0.6 N 17 22 9 12 1002.6 1002.5 10.2
17/12:30am 16.6 15.2 15.6 94 0.6 N 17 22 9 12 1003.0 1002.9 10.2
17/12:00am 16.6 14.8 15.6 94 0.6 N 19 24 10 13 1003.1 1003.0 10.0
 
Date/Time
EDT
Temp
°C
App
Temp
°C
Dew
Point
°C
Rel
Hum
%
Delta-T
°C
Wind Press
QNH
hPa
Press
MSL
hPa
Rain since
9am
mm
Dir  Spd
km/h
Gust
km/h
Spd
kts
Gust
kts
16/11:30pm 16.6 14.8 15.6 94 0.6 N 19 20 10 11 1003.2 1003.1 10.0
16/11:00pm 16.5 15.1 15.5 94 0.6 N 17 20 9 11 1003.3 1003.2 10.0
16/10:30pm 16.2 16.2 15.1 93 0.6 NW 9 15 5 8 1003.3 1003.2 10.0
16/10:00pm 16.1 15.6 15.0 93 0.6 NW 11 17 6 9 1003.4 1003.3 10.0
16/09:30pm 16.1 16.4 15.0 93 0.6 ESE 7 11 4 6 1002.7 1002.6 10.0
16/09:00pm 16.4 16.4 15.3 93 0.6 E 9 13 5 7 1003.0 1002.9 10.0
16/08:30pm 16.5 15.0 15.4 93 0.6 E 17 20 9 11 1003.1 1003.0 9.8
16/08:00pm 16.8 17.4 15.7 93 0.6 W 7 13 4 7 1003.3 1003.2 9.6
16/07:30pm 16.6 16.3 15.5 93 0.6 E 11 17 6 9 1003.1 1003.0 9.6
16/07:00pm 16.7 15.3 15.6 93 0.6 E 17 20 9 11 1002.5 1002.4 9.6
16/06:30pm 16.6 15.9 15.3 92 0.8 ESE 13 15 7 8 1002.1 1002.0 9.6
16/06:00pm 16.8 16.9 15.5 92 0.8 SE 9 15 5 8 1002.6 1002.5 9.4
16/05:30pm 17.2 17.4 15.7 91 0.9 S 9 17 5 9 1002.8 1002.7 4.2
16/05:00pm 17.3 16.3 15.6 90 1.0 SSE 15 20 8 11 1002.5 1002.4 3.2
16/04:30pm 17.6 17.4 15.6 88 1.2 S 11 19 6 10 1002.9 1002.8 0.2
16/04:00pm 18.5 18.2 15.4 82 1.8 SSW 11 17 6 9 1002.6 1002.5 0.0
16/03:30pm 21.8 21.7 16.1 70 3.4 SW 11 17 6 9 1002.1 1002.0 0.0
16/03:00pm 23.8 23.0 16.1 62 4.7 W 15 22 8 12 1002.0 1001.9 0.0
16/02:30pm 25.0 25.1 16.4 59 5.3 S 11 15 6 8 1001.9 1001.8 0.0
16/02:00pm 24.4 23.9 16.9 63 4.7 SE 15 20 8 11 1002.1 1002.0 0.0
16/01:30pm 27.4 27.1 16.4 51 6.8 NE 13 22 7 12 1002.4 1002.3 0.0
16/01:00pm 26.1 25.2 16.9 57 5.7 NE 17 22 9 12 1003.1 1003.0 0.0
16/12:30pm 25.0 23.7 16.7 60 5.1 NNE 19 28 10 15 1003.4 1003.3 0.0
16/12:00pm 24.1 22.7 16.6 63 4.6 NNE 19 30 10 16 1003.8 1003.7 0.0
16/11:30am 24.2 23.4 17.9 68 4.0 NNE 19 30 10 16 1004.0 1003.9 0.0
16/11:00am 23.0 22.0 17.5 71 3.4 NNE 19 30 10 16 1004.3 1004.2 0.0
16/10:30am 22.0 20.5 17.6 76 2.7 NNE 22 33 12 18 1004.6 1004.5 0.0
16/10:00am 20.4 19.2 17.4 83 1.8 NNE 20 30 11 16 1005.0 1004.9 0.0
16/09:30am 19.0 18.1 16.8 87 1.3 NNE 17 26 9 14 1005.6 1005.5 0.0
16/09:00am 18.2 16.6 16.4 89 1.1 NE 20 30 11 16 1005.9 1005.8 0.6
16/08:30am 17.8 16.2 16.5 92 0.8 NE 20 30 11 16 1005.8 1005.7 0.6
16/08:00am 17.7 17.8 16.6 93 0.7 E 11 15 6 8 1005.9 1005.8 0.6
16/07:30am 17.1 15.3 16.0 93 0.7 ENE 20 28 11 15 1006.2 1006.1 0.6
16/07:00am 17.1 14.9 16.0 93 0.7 E 22 28 12 15 1006.5 1006.4 0.6
16/06:30am 17.1 14.8 15.6 91 0.9 ENE 22 30 12 16 1006.8 1006.7 0.6
16/06:00am 17.9 17.6 16.4 91 0.9 ENE 13 20 7 11 1007.0 1006.9 0.4
16/05:30am 17.8 16.1 16.3 91 0.9 NE 20 30 11 16 1007.4 1007.3 0.4
16/05:00am 17.8 16.1 16.3 91 0.9 ENE 20 33 11 18 1007.3 1007.2 0.4
16/04:30am 17.8 16.1 16.3 91 0.9 NE 20 32 11 17 1007.5 1007.4 0.4
16/04:00am 17.7 16.9 16.2 91 0.9 ENE 15 24 8 13 1007.6 1007.5 0.4
16/03:30am 17.6 16.4 16.1 91 0.9 NE 17 24 9 13 1007.9 1007.8 0.4
16/03:00am 17.6 15.9 16.3 92 0.8 ENE 20 30 11 16 1008.4 1008.3 0.4
16/02:30am 17.4 15.3 16.1 92 0.8 NE 22 32 12 17 1008.8 1008.7 0.4
16/02:00am 17.6 16.1 16.3 92 0.8 NE 19 30 10 16 1009.5 1009.4 0.4
16/01:30am 17.5 15.4 16.2 92 0.8 ENE 22 32 12 17 1009.6 1009.5 0.4
16/01:00am 17.4 15.9 16.3 93 0.7 NE 19 24 10 13 1010.2 1010.2 0.4
16/12:30am 16.9 14.9 15.6 92 0.8 ENE 20 24 11 13 1010.4 1010.4 0.4
16/12:00am 16.9 15.6 15.8 93 0.6 NE 17 26 9 14 1011.0 1011.0 0.4
 
Date/Time
EDT
Temp
°C
App
Temp
°C
Dew
Point
°C
Rel
Hum
%
Delta-T
°C
Wind Press
QNH
hPa
Press
MSL
hPa
Rain since
9am
mm
Dir  Spd
km/h
Gust
km/h
Spd
kts
Gust
kts
15/11:30pm 16.5 15.8 15.4 93 0.6 NE 13 19 7 10 1011.1 1011.1 0.4
15/11:00pm 16.6 15.6 15.5 93 0.6 ENE 15 19 8 10 1011.5 1011.5 0.4
15/10:30pm 16.9 15.0 15.8 93 0.6 NE 20 28 11 15 1011.9 1011.9 0.4
15/10:00pm 16.9 15.2 15.8 93 0.6 ENE 19 26 10 14 1012.0 1012.0 0.4
15/09:30pm 16.7 15.3 15.6 93 0.6 ENE 17 20 9 11 1011.8 1011.8 0.4
15/09:00pm 16.6 15.2 15.5 93 0.6 ENE 17 24 9 13 1011.6 1011.6 0.4
15/08:30pm 16.3 14.4 15.2 93 0.6 ENE 19 24 10 13 1011.5 1011.5 0.2
15/08:00pm 16.4 13.6 15.3 93 0.6 ENE 24 32 13 17 1011.3 1011.3 0.0
15/07:30pm 16.4 12.0 15.1 92 0.8 ENE 32 43 17 23 1010.7 1010.7 0.0
15/07:00pm 16.2 11.5 14.9 92 0.8 ENE 33 46 18 25 1010.7 1010.7 0.0
15/06:30pm 16.5 12.8 14.9 90 0.9 ENE 28 37 15 20 1011.0 1011.0 0.0
15/06:00pm 16.7 12.9 14.7 88 1.2 ENE 28 39 15 21 1011.2 1011.2 0.0
15/05:30pm 16.5 11.3 14.5 88 1.1 ENE 35 54 19 29 1011.5 1011.5 0.0
15/05:09pm 16.6 11.8 14.6 88 1.2 ENE 33 54 18 29 1011.4 1011.4 0.0
15/05:00pm 16.6 11.4 14.6 88 1.2 ENE 35 46 19 25 1011.9 1011.9 0.0
15/04:30pm 16.3 10.7 14.5 89 1.0 ENE 37 48 20 26 1012.7 1012.7 0.0
15/04:00pm 16.1 11.1 14.1 88 1.1 ENE 33 54 18 29 1013.4 1013.4 0.0
15/03:58pm 16.1 11.1 13.9 87 1.2 ENE 33 54 18 29 1013.5 1013.5 0.0
15/03:30pm 16.2 10.7 13.7 85 1.4 ENE 35 48 19 26 1013.9 1013.9 0.0
15/03:20pm 16.5 11.4 13.8 84 1.5 ENE 33 52 18 28 1014.0 1014.0 0.0
15/03:00pm 16.4 11.2 14.4 88 1.1 E 35 48 19 26 1013.8 1013.8 0.0
15/02:30pm 15.7 10.2 13.5 87 1.2 E 35 44 19 24 1014.8 1014.8 0.0
15/02:00pm 15.5 10.3 13.3 87 1.2 E 33 44 18 24 1015.2 1015.2 0.0
15/01:30pm 15.9 9.2 13.4 85 1.4 ENE 41 50 22 27 1015.3 1015.3 0.0
15/01:00pm 16.3 10.4 13.6 84 1.5 ENE 37 44 20 24 1015.7 1015.7 0.0
15/12:30pm 16.7 12.4 14.3 86 1.4 ENE 30 39 16 21 1016.2 1016.2 0.0
15/12:00pm 16.3 11.4 13.6 84 1.5 ENE 32 41 17 22 1016.3 1016.3 0.0
15/11:30am 16.8 11.4 12.9 78 2.2 E 33 43 18 23 1016.6 1016.6 0.0
15/11:00am 17.8 11.7 12.9 73 2.7 E 37 46 20 25 1016.5 1016.5 0.0
15/10:30am 19.3 13.7 13.3 68 3.4 ENE 35 44 19 24 1016.7 1016.7 0.0
15/10:00am 19.1 14.0 13.1 68 3.4 ENE 32 43 17 23 1017.1 1017.1 0.0
15/09:30am 18.2 13.3 12.6 70 3.1 ENE 30 43 16 23 1017.4 1017.4 0.0
15/09:00am 18.8 14.3 13.9 73 2.8 ENE 30 37 16 20 1017.4 1017.4 0.0
15/08:30am 17.0 12.9 12.7 76 2.4 E 26 33 14 18 1017.5 1017.5 0.0
15/08:00am 16.8 12.3 12.5 76 2.4 ENE 28 33 15 18 1017.4 1017.4 0.0
15/07:30am 16.7 12.5 12.3 75 2.4 ENE 26 33 14 18 1017.3 1017.3 0.0
15/07:00am 16.1 11.4 11.9 76 2.3 ENE 28 39 15 21 1017.0 1017.0 0.0
15/06:30am 15.8 12.4 11.4 75 2.4 ENE 20 28 11 15 1017.2 1017.2 0.0
15/06:00am 15.5 11.9 10.7 73 2.5 ENE 20 26 11 14 1017.2 1017.2 0.0
15/05:30am 15.5 11.6 10.9 74 2.5 ENE 22 30 12 16 1017.1 1017.1 0.0
15/05:00am 15.5 11.6 10.9 74 2.4 ENE 22 35 12 19 1016.9 1016.9 0.0
15/04:30am 15.4 12.2 11.4 77 2.2 ENE 19 26 10 14 1016.9 1016.9 0.0
15/04:00am 15.6 12.2 11.4 76 2.3 ENE 20 32 11 17 1016.9 1016.9 0.0
15/03:30am 15.5 12.4 11.5 77 2.2 ENE 19 28 10 15 1016.9 1016.9 0.0
15/03:00am 15.4 12.0 11.4 77 2.1 ENE 20 26 11 14 1016.9 1016.9 0.0
15/02:30am 15.4 11.8 11.8 79 2.0 ENE 22 32 12 17 1017.0 1017.0 0.0
15/02:00am 15.4 12.2 12.0 80 1.8 ENE 20 28 11 15 1017.3 1017.3 0.0
15/01:30am 15.3 11.7 11.9 80 1.8 ENE 22 30 12 16 1017.4 1017.4 0.0
15/01:00am 14.9 11.7 11.9 82 1.6 ENE 20 28 11 15 1017.6 1017.6 0.0
15/12:30am 14.5 11.8 11.7 83 1.5 NE 17 24 9 13 1017.6 1017.6 0.0
15/12:00am 14.4 11.6 11.4 82 1.6 NE 17 26 9 14 1017.9 1017.9 0.0
 
Date/Time
EDT
Temp
°C
App
Temp
°C
Dew
Point
°C
Rel
Hum
%
Delta-T
°C
Wind Press
QNH
hPa
Press
MSL
hPa
Rain since
9am
mm
Dir  Spd
km/h
Gust
km/h
Spd
kts
Gust
kts
14/11:30pm 14.7 12.3 11.3 80 1.8 ENE 15 20 8 11 1017.8 1017.8 0.0
14/11:00pm 14.9 12.5 11.5 80 1.8 ENE 15 20 8 11 1018.2 1018.2 0.0
14/10:30pm 14.6 12.1 11.0 79 1.9 ENE 15 20 8 11 1018.2 1018.2 0.0
14/10:00pm 15.0 11.3 11.4 79 1.9 ENE 22 30 12 16 1018.1 1018.1 0.0
14/09:30pm 14.9 11.6 11.5 80 1.8 ENE 20 28 11 15 1017.9 1017.9 0.0

Latest Capital City Observations: Canberra | Sydney | Melbourne | Brisbane | Adelaide | Perth | Hobart | Darwin

Other Formats:

Comma delimited format used in spreadsheet applications
http://www.bom.gov.au/fwo/IDT60901/IDT60901.95967.axf

JavaScript Object Notation format (JSON) in row-major order
http://www.bom.gov.au/fwo/IDT60901/IDT60901.95967.json